Time;durP1;ratioP1;P1;durP2;ratioP2;P2;SDS_P1;SDS_P2;PMS_P1;PMS_P2;Temp;Humidity;BMP_temperature;BMP_pressure;BME280_temperature;BME280_humidity;BME280_pressure;Samples;Min_cycle;Max_cycle;Signal;HPM_P1;HPM_P2
2023/10/04 00:00:19;;;;;;;17.08;2.78;;;14.50;99.90;;;;;;4953534;29;20099;-74
2023/10/04 00:03:05;;;;;;;13.10;2.47;;;14.50;99.90;;;;;;4936010;29;20118;-73
2023/10/04 00:05:51;;;;;;;20.77;3.40;;;14.50;99.90;;;;;;4953525;29;20055;-75
2023/10/04 00:08:37;;;;;;;11.63;2.72;;;14.50;99.90;;;;;;4954171;29;20120;-78
2023/10/04 00:11:24;;;;;;;12.52;2.28;;;14.50;99.90;;;;;;4937285;29;20567;-77
2023/10/04 00:14:10;;;;;;;16.10;2.85;;;14.50;99.90;;;;;;4937649;29;20478;-74
2023/10/04 00:16:59;;;;;;;17.27;2.83;;;14.50;99.90;;;;;;4953227;29;20059;-75
2023/10/04 00:19:47;;;;;;;15.50;2.83;;;14.40;99.90;;;;;;4937771;29;20567;-74
2023/10/04 00:22:34;;;;;;;12.88;4.03;;;14.40;99.90;;;;;;4923367;29;20059;-74
2023/10/04 00:25:23;;;;;;;17.25;2.72;;;14.40;99.90;;;;;;4938193;28;20055;-76
2023/10/04 00:28:09;;;;;;;24.98;4.25;;;14.40;99.90;;;;;;4937253;29;20066;-71
2023/10/04 00:30:55;;;;;;;7.28;2.10;;;14.50;99.90;;;;;;4937370;29;20083;-75
2023/10/04 00:33:41;;;;;;;16.27;2.75;;;14.50;99.90;;;;;;4936785;29;20051;-76
2023/10/04 00:36:28;;;;;;;15.00;2.25;;;14.50;99.90;;;;;;4954363;29;20051;-80
2023/10/04 00:39:14;;;;;;;14.05;2.53;;;14.60;99.90;;;;;;4937408;28;20082;-80
2023/10/04 00:42:00;;;;;;;14.30;3.05;;;14.50;99.90;;;;;;4937439;29;20468;-73
2023/10/04 00:44:47;;;;;;;13.90;2.33;;;14.50;99.90;;;;;;4953051;29;20059;-75
2023/10/04 00:47:33;;;;;;;12.82;2.17;;;14.40;99.90;;;;;;4937832;28;20063;-75
2023/10/04 00:50:29;;;;;;;17.05;3.00;;;14.40;99.90;;;;;;4952596;29;20070;-75
2023/10/04 00:53:26;;;;;;;13.73;2.70;;;14.40;99.90;;;;;;4953903;28;20048;-74
2023/10/04 00:56:16;;;;;;;19.25;3.35;;;14.30;99.90;;;;;;4937101;29;20055;-76
2023/10/04 00:59:03;;;;;;;13.15;3.42;;;14.20;99.90;;;;;;4924155;29;20105;-75
2023/10/04 01:01:50;;;;;;;17.42;3.58;;;14.20;99.90;;;;;;4936414;29;20415;-79
2023/10/04 01:04:36;;;;;;;14.13;2.70;;;14.20;99.90;;;;;;4936936;29;20055;-75
2023/10/04 01:07:22;;;;;;;12.30;3.13;;;14.20;99.90;;;;;;4937071;29;20461;-78
2023/10/04 01:10:21;;;;;;;18.10;3.55;;;14.20;99.90;;;;;;4936946;29;20059;-80
2023/10/04 01:13:09;;;;;;;16.17;2.67;;;14.10;99.90;;;;;;4936923;29;20066;-78
2023/10/04 01:15:57;;;;;;;13.23;2.72;;;14.10;99.90;;;;;;4936994;29;20066;-88
2023/10/04 01:18:44;;;;;;;14.48;2.90;;;14.10;99.90;;;;;;4936931;29;20480;-72
2023/10/04 01:21:31;;;;;;;11.43;2.35;;;14.10;99.90;;;;;;4935875;29;20518;-76
2023/10/04 01:24:17;;;;;;;18.13;3.15;;;14.10;99.90;;;;;;4936380;29;20062;-76
2023/10/04 01:27:04;;;;;;;11.15;3.78;;;14.10;99.90;;;;;;4923303;29;20055;-78
2023/10/04 01:29:50;;;;;;;12.80;2.60;;;14.00;99.90;;;;;;4936589;29;20047;-79
2023/10/04 01:32:40;;;;;;;17.30;3.33;;;14.10;99.90;;;;;;4951796;29;20066;-76
2023/10/04 01:35:27;;;;;;;15.27;3.35;;;14.00;99.90;;;;;;4936021;29;20272;-87
2023/10/04 01:38:13;;;;;;;15.30;2.60;;;14.00;99.90;;;;;;4953994;28;20050;-81
2023/10/04 01:41:00;;;;;;;14.05;2.80;;;13.90;99.90;;;;;;4939128;29;20589;-79
2023/10/04 01:43:49;;;;;;;18.92;2.92;;;13.90;99.90;;;;;;4935612;29;20134;-78
2023/10/04 01:46:36;;;;;;;11.43;3.08;;;13.80;99.90;;;;;;4953401;28;20062;-75
2023/10/04 01:49:23;;;;;;;12.10;2.50;;;13.80;99.90;;;;;;4953499;28;20055;-73
2023/10/04 01:52:09;;;;;;;22.08;3.88;;;13.80;99.90;;;;;;4935892;29;20059;-73
2023/10/04 01:54:56;;;;;;;20.83;4.10;;;13.80;99.90;;;;;;4922913;29;20781;-74
2023/10/04 01:57:43;;;;;;;13.95;4.43;;;13.80;99.90;;;;;;4936195;29;20051;-77
2023/10/04 02:00:29;;;;;;;12.52;2.88;;;13.80;99.90;;;;;;4953122;28;20095;-79
2023/10/04 02:03:16;;;;;;;25.02;4.38;;;13.80;99.90;;;;;;4954455;28;20804;-74
2023/10/04 02:06:02;;;;;;;17.67;3.13;;;13.80;99.90;;;;;;4942646;29;20047;-72
2023/10/04 02:08:48;;;;;;;11.02;2.35;;;13.80;99.90;;;;;;4928794;29;20063;-72
2023/10/04 02:11:36;;;;;;;16.08;3.10;;;13.80;99.90;;;;;;4960052;28;20059;-79
2023/10/04 02:14:22;;;;;;;16.15;3.28;;;13.80;99.90;;;;;;4928989;29;20051;-74
2023/10/04 02:17:09;;;;;;;13.73;3.30;;;13.80;99.90;;;;;;4929904;29;20059;-76
2023/10/04 02:19:55;;;;;;;14.20;3.10;;;13.80;99.90;;;;;;4942066;29;20083;-81
2023/10/04 02:22:41;;;;;;;14.50;4.03;;;13.80;99.90;;;;;;4941315;29;20053;-76
2023/10/04 02:25:27;;;;;;;18.58;3.33;;;13.80;99.90;;;;;;4941547;29;20062;-78
2023/10/04 02:28:22;;;;;;;14.02;3.70;;;13.90;99.90;;;;;;4942286;29;20070;-73
2023/10/04 02:31:08;;;;;;;13.75;2.72;;;13.90;99.90;;;;;;4928551;29;20066;-78
2023/10/04 02:33:54;;;;;;;23.15;3.72;;;14.00;99.90;;;;;;4942390;29;20468;-77
2023/10/04 02:36:43;;;;;;;17.70;2.72;;;13.90;99.90;;;;;;4942460;29;20055;-73
2023/10/04 02:39:30;;;;;;;19.63;3.67;;;13.90;99.90;;;;;;4959689;28;20055;-76
2023/10/04 02:42:21;;;;;;;12.55;2.70;;;13.90;99.90;;;;;;4959707;28;20050;-74
2023/10/04 02:45:08;;;;;;;14.73;2.83;;;13.90;99.90;;;;;;4942352;29;20055;-74
2023/10/04 02:47:54;;;;;;;17.92;3.13;;;14.00;99.90;;;;;;4928255;29;20051;-76
2023/10/04 02:50:40;;;;;;;17.10;3.70;;;13.90;99.90;;;;;;4942389;28;20062;-77
2023/10/04 02:53:27;;;;;;;11.00;2.45;;;13.90;99.90;;;;;;4959218;28;20416;-73
2023/10/04 02:56:13;;;;;;;17.60;4.60;;;14.00;99.90;;;;;;4942493;28;20055;-72
2023/10/04 02:59:00;;;;;;;13.52;2.95;;;14.00;99.90;;;;;;4942523;28;20348;-75
2023/10/04 03:01:46;;;;;;;15.25;3.00;;;14.00;99.90;;;;;;4942467;29;20055;-76
2023/10/04 03:04:31;;;;;;;33.60;5.75;;;14.00;99.90;;;;;;4941178;29;20106;-73
2023/10/04 03:07:19;;;;;;;20.27;2.97;;;13.80;99.90;;;;;;4941334;28;20058;-81
2023/10/04 03:10:06;;;;;;;18.73;2.85;;;13.80;99.90;;;;;;4941418;29;20062;-80
2023/10/04 03:12:54;;;;;;;21.13;4.07;;;13.80;99.90;;;;;;4941979;29;20455;-75
2023/10/04 03:15:40;;;;;;;13.65;2.92;;;13.70;99.90;;;;;;4940764;29;20468;-81
2023/10/04 03:18:26;;;;;;;18.92;3.67;;;13.70;99.90;;;;;;4938781;29;20055;-80
2023/10/04 03:21:20;;;;;;;14.25;3.65;;;13.60;99.90;;;;;;4954029;28;20059;-82
2023/10/04 03:24:10;;;;;;;21.33;3.53;;;13.60;99.90;;;;;;4938728;29;20264;-83
2023/10/04 03:26:56;;;;;;;16.15;3.47;;;13.50;99.90;;;;;;4938225;29;20062;-79
2023/10/04 03:29:43;;;;;;;17.95;2.92;;;13.50;99.90;;;;;;4938095;29;20492;-77
2023/10/04 03:32:29;;;;;;;17.20;3.78;;;13.50;99.90;;;;;;4924790;29;20502;-83
2023/10/04 03:35:15;;;;;;;15.20;3.10;;;13.50;99.90;;;;;;4938527;29;20185;-79
2023/10/04 03:38:04;;;;;;;13.90;3.47;;;13.50;99.90;;;;;;4938228;29;20500;-85
2023/10/04 03:40:51;;;;;;;22.73;3.92;;;13.40;99.90;;;;;;4924970;29;20164;-82
2023/10/04 03:43:37;;;;;;;17.27;3.72;;;13.40;99.90;;;;;;4938680;29;20496;-82
2023/10/04 03:46:23;;;;;;;22.92;4.68;;;13.40;99.90;;;;;;4926240;29;20492;-82
2023/10/04 03:49:10;;;;;;;19.48;3.70;;;13.40;99.90;;;;;;4938933;29;20114;-80
2023/10/04 03:51:56;;;;;;;22.67;4.20;;;13.50;99.90;;;;;;4938098;29;20524;-73
2023/10/04 03:54:45;;;;;;;19.67;4.57;;;13.50;99.90;;;;;;4924829;29;20055;-78
2023/10/04 03:57:33;;;;;;;18.13;4.13;;;13.40;99.90;;;;;;4938548;29;20543;-76
2023/10/04 04:00:22;;;;;;;16.33;3.38;;;13.30;99.90;;;;;;4938361;29;20504;-78
2023/10/04 04:03:09;;;;;;;14.73;3.15;;;13.30;99.90;;;;;;4937867;29;20579;-81
2023/10/04 04:05:56;;;;;;;14.02;3.05;;;13.20;99.90;;;;;;4937120;29;20197;-79
2023/10/04 04:08:42;;;;;;;19.50;4.05;;;13.20;99.90;;;;;;4938246;29;20051;-82
2023/10/04 04:11:28;;;;;;;16.60;4.47;;;13.20;99.90;;;;;;4937886;29;20134;-83
2023/10/04 04:14:18;;;;;;;16.23;2.78;;;13.20;99.90;;;;;;4940737;29;20079;-76
2023/10/04 04:17:05;;;;;;;33.05;4.15;;;13.20;99.90;;;;;;4942072;29;20066;-78
2023/10/04 04:19:51;;;;;;;15.45;3.15;;;13.20;99.90;;;;;;4943518;29;20066;-75
2023/10/04 04:22:37;;;;;;;17.15;4.32;;;13.20;99.90;;;;;;4927908;29;20561;-83
2023/10/04 04:25:26;;;;;;;17.30;3.42;;;13.30;99.90;;;;;;4937687;28;20059;-75
2023/10/04 04:28:14;;;;;;;21.75;4.47;;;13.20;99.90;;;;;;4955002;28;20385;-83
2023/10/04 04:31:01;;;;;;;20.75;4.35;;;13.30;99.90;;;;;;4937967;28;20416;-83
2023/10/04 04:33:47;;;;;;;16.02;3.08;;;13.30;99.90;;;;;;4937561;29;20055;-83
2023/10/04 04:36:34;;;;;;;13.27;2.83;;;13.30;99.90;;;;;;4953196;29;20074;-81
2023/10/04 04:39:21;;;;;;;10.93;2.75;;;13.30;99.90;;;;;;4936914;29;20090;-83
2023/10/04 04:42:11;;;;;;;14.95;3.00;;;13.30;99.90;;;;;;4954091;29;20054;-87
2023/10/04 04:44:57;;;;;;;13.48;3.65;;;13.30;99.90;;;;;;4937453;29;20058;-81
2023/10/04 04:47:44;;;;;;;19.02;3.15;;;13.30;99.90;;;;;;4923454;29;20078;-80
2023/10/04 04:50:33;;;;;;;15.52;3.25;;;13.40;99.90;;;;;;4954447;28;20059;-79
2023/10/04 04:53:22;;;;;;;18.55;3.33;;;13.40;99.90;;;;;;4937172;29;20061;-82
2023/10/04 04:56:15;;;;;;;17.60;3.45;;;13.40;99.90;;;;;;4936747;29;20062;-75
2023/10/04 04:59:07;;;;;;;15.10;3.85;;;13.40;99.90;;;;;;4936562;29;20604;-85
2023/10/04 05:01:55;;;;;;;9.68;2.60;;;13.40;99.90;;;;;;4936501;29;20471;-89
2023/10/04 05:04:43;;;;;;;14.05;2.85;;;13.40;99.90;;;;;;4937205;29;20055;-82
2023/10/04 05:07:29;;;;;;;17.77;4.68;;;13.40;99.90;;;;;;4937664;29;20492;-82
2023/10/04 05:10:17;;;;;;;8.02;2.30;;;13.40;99.90;;;;;;4937743;29;20059;-75
2023/10/04 05:13:13;;;;;;;17.15;4.18;;;13.40;99.90;;;;;;4937661;29;20484;-86
2023/10/04 05:16:00;;;;;;;22.17;3.33;;;13.40;99.90;;;;;;4935868;29;20082;-73
2023/10/04 05:18:46;;;;;;;21.05;3.33;;;13.40;99.90;;;;;;4937094;29;20047;-86
2023/10/04 05:21:32;;;;;;;13.70;2.72;;;13.40;99.90;;;;;;4936849;29;20575;-86
2023/10/04 05:24:18;;;;;;;12.75;3.10;;;13.40;99.90;;;;;;4935965;29;20093;-87
2023/10/04 05:27:05;;;;;;;19.20;3.92;;;13.40;99.90;;;;;;4952052;29;20134;-83
2023/10/04 05:29:51;;;;;;;14.32;3.60;;;13.30;99.90;;;;;;4936883;29;20488;-87
2023/10/04 05:32:39;;;;;;;20.48;4.22;;;13.30;99.90;;;;;;4936801;29;20582;-86
2023/10/04 05:35:26;;;;;;;27.75;5.00;;;13.30;99.90;;;;;;4952944;29;20523;-80
2023/10/04 05:38:14;;;;;;;16.77;3.60;;;13.30;99.90;;;;;;4923056;29;20128;-87
2023/10/04 05:41:01;;;;;;;15.85;3.25;;;13.30;99.90;;;;;;4924554;29;20047;-85
2023/10/04 05:43:47;;;;;;;15.95;3.75;;;13.30;99.90;;;;;;4937535;29;20067;-80
2023/10/04 05:46:34;;;;;;;18.60;3.42;;;13.20;99.90;;;;;;4923935;29;20080;-74
2023/10/04 05:49:20;;;;;;;17.95;3.55;;;13.20;99.90;;;;;;4937603;28;20157;-81
2023/10/04 05:52:06;;;;;;;16.35;5.88;;;13.20;99.90;;;;;;4936879;29;20281;-82
2023/10/04 05:54:52;;;;;;;19.90;3.55;;;13.10;99.90;;;;;;4923441;29;20189;-79
2023/10/04 05:57:38;;;;;;;17.33;4.00;;;13.20;99.90;;;;;;4941606;29;20051;-76
2023/10/04 06:03:12;;;;;;;17.10;3.42;;;13.10;99.90;;;;;;4944744;29;20098;-76
2023/10/04 06:05:58;;;;;;;18.60;4.68;;;13.10;99.90;;;;;;4962454;28;20058;-86
2023/10/04 06:08:45;;;;;;;19.02;3.80;;;13.00;99.90;;;;;;4945434;29;20051;-80
2023/10/04 06:11:31;;;;;;;16.58;4.35;;;13.00;99.90;;;;;;4937525;29;20055;-73
2023/10/04 06:14:17;;;;;;;13.50;3.53;;;13.00;99.90;;;;;;4952224;29;20054;-79
2023/10/04 06:17:04;;;;;;;21.90;3.58;;;13.00;99.90;;;;;;4935454;29;20090;-74
2023/10/04 06:19:54;;;;;;;14.70;3.05;;;12.90;99.90;;;;;;4935785;29;20051;-73
2023/10/04 06:22:40;;;;;;;15.52;3.35;;;12.90;99.90;;;;;;4952760;28;20063;-72
2023/10/04 06:25:29;;;;;;;18.63;4.45;;;12.80;99.90;;;;;;4951200;29;20048;-72
2023/10/04 06:28:15;;;;;;;19.90;5.47;;;12.80;99.90;;;;;;4935651;29;20059;-73
2023/10/04 06:31:06;;;;;;;16.35;4.28;;;12.80;99.90;;;;;;4922492;29;20059;-72
2023/10/04 06:33:54;;;;;;;19.02;4.05;;;12.80;99.90;;;;;;4951757;29;20118;-72
2023/10/04 06:36:40;;;;;;;19.80;4.78;;;12.80;99.90;;;;;;4935672;29;20194;-77
2023/10/04 06:39:26;;;;;;;16.27;4.45;;;12.80;99.90;;;;;;4935453;29;20102;-74
2023/10/04 06:42:13;;;;;;;17.30;4.82;;;12.80;99.90;;;;;;4935289;29;20138;-73
2023/10/04 06:44:59;;;;;;;16.05;4.65;;;12.80;99.90;;;;;;4953111;28;20047;-75
2023/10/04 06:47:47;;;;;;;17.73;3.70;;;12.90;99.90;;;;;;4922502;29;20066;-75
2023/10/04 06:50:36;;;;;;;18.27;3.33;;;12.90;99.90;;;;;;4936999;29;20059;-73
2023/10/04 06:53:22;;;;;;;18.10;4.10;;;12.90;99.90;;;;;;4939497;29;20047;-72
2023/10/04 06:56:08;;;;;;;19.40;3.67;;;12.90;99.90;;;;;;4941438;29;20055;-77
2023/10/04 06:58:54;;;;;;;14.95;4.03;;;13.00;99.90;;;;;;4939784;29;20479;-76
2023/10/04 07:01:40;;;;;;;17.10;3.95;;;13.00;99.90;;;;;;4956460;28;20043;-79
2023/10/04 07:04:26;;;;;;;14.35;4.00;;;13.10;99.90;;;;;;4956587;28;20179;-72
2023/10/04 07:07:14;;;;;;;15.32;3.90;;;13.10;99.90;;;;;;4954486;29;20558;-81
2023/10/04 07:10:01;;;;;;;16.05;3.65;;;13.20;99.90;;;;;;4939239;29;20047;-78
2023/10/04 07:12:51;;;;;;;17.58;4.80;;;13.30;99.90;;;;;;4955205;29;20054;-75
2023/10/04 07:15:41;;;;;;;19.77;4.63;;;13.40;99.90;;;;;;4941097;29;20484;-74
2023/10/04 07:18:27;;;;;;;22.08;4.10;;;13.50;99.90;;;;;;4939076;29;20061;-78
2023/10/04 07:21:15;;;;;;;16.42;5.10;;;13.60;99.90;;;;;;4954111;28;20060;-79
2023/10/04 07:24:01;;;;;;;16.42;3.60;;;13.70;99.90;;;;;;4955969;28;20101;-75
2023/10/04 07:26:47;;;;;;;18.67;4.25;;;13.70;99.90;;;;;;4937705;29;20059;-74
2023/10/04 07:29:32;;;;;;;17.23;4.03;;;13.80;99.90;;;;;;4938285;29;20086;-75
2023/10/04 07:32:19;;;;;;;21.20;4.03;;;13.90;99.90;;;;;;4937852;29;20419;-77
2023/10/04 07:35:06;;;;;;;17.60;4.85;;;14.00;99.90;;;;;;4938716;29;20081;-73
2023/10/04 07:37:54;;;;;;;15.82;3.60;;;14.00;99.90;;;;;;4924926;29;20051;-74
2023/10/04 07:40:40;;;;;;;17.27;4.25;;;14.10;99.90;;;;;;4938546;29;20086;-75
2023/10/04 07:43:27;;;;;;;13.30;3.80;;;14.20;99.90;;;;;;4937787;29;20069;-77
2023/10/04 07:46:13;;;;;;;15.27;3.95;;;14.20;99.90;;;;;;4953894;29;20051;-77
2023/10/04 07:49:00;;;;;;;16.80;3.72;;;14.20;99.90;;;;;;4938353;29;20208;-73
2023/10/04 07:51:46;;;;;;;11.00;4.03;;;14.30;99.90;;;;;;4953839;29;20503;-81
2023/10/04 07:54:34;;;;;;;11.75;3.40;;;14.40;99.90;;;;;;4938032;29;20059;-74
2023/10/04 07:57:21;;;;;;;17.60;5.53;;;14.50;99.90;;;;;;4938249;29;20061;-73
2023/10/04 08:00:14;;;;;;;13.00;4.63;;;14.60;99.90;;;;;;4937816;28;20055;-75
2023/10/04 08:03:00;;;;;;;16.63;4.72;;;14.70;99.90;;;;;;4955243;28;20105;-76
2023/10/04 08:05:46;;;;;;;17.02;4.22;;;14.70;99.90;;;;;;4955627;28;20058;-73
2023/10/04 08:08:32;;;;;;;15.75;4.60;;;14.80;99.90;;;;;;4924888;29;20459;-75
2023/10/04 08:11:18;;;;;;;16.55;3.80;;;14.80;99.90;;;;;;4953397;29;20091;-75
2023/10/04 08:14:07;;;;;;;16.02;4.50;;;15.00;99.90;;;;;;4924035;29;20062;-78
2023/10/04 08:16:53;;;;;;;18.63;3.83;;;15.10;99.90;;;;;;4937644;29;20232;-73
2023/10/04 08:19:39;;;;;;;9.27;3.35;;;15.20;99.90;;;;;;4938152;29;20047;-74
2023/10/04 08:22:25;;;;;;;17.77;3.83;;;15.20;99.90;;;;;;4953366;28;20138;-78
2023/10/04 08:25:16;;;;;;;17.00;4.35;;;15.20;99.90;;;;;;4936997;29;20146;-74
2023/10/04 08:28:06;;;;;;;14.32;4.05;;;15.30;99.90;;;;;;4937899;29;20043;-72
2023/10/04 08:30:52;;;;;;;14.60;3.70;;;15.30;99.90;;;;;;4937514;29;20050;-74
2023/10/04 08:33:39;;;;;;;19.10;4.43;;;15.40;99.90;;;;;;4936779;29;20058;-74
2023/10/04 08:36:25;;;;;;;11.73;3.53;;;15.50;99.90;;;;;;4923588;29;20083;-77
2023/10/04 08:39:11;;;;;;;14.95;2.95;;;15.70;99.90;;;;;;4922968;29;20094;-72
2023/10/04 08:41:57;;;;;;;9.90;3.30;;;15.80;99.90;;;;;;4937445;29;20067;-73
2023/10/04 08:44:43;;;;;;;17.02;3.88;;;15.90;99.90;;;;;;4953648;29;20055;-73
2023/10/04 08:47:29;;;;;;;15.10;4.10;;;16.00;99.90;;;;;;4923509;29;20047;-73
2023/10/04 08:50:19;;;;;;;21.25;4.10;;;16.10;99.90;;;;;;4952640;29;20778;-75
2023/10/04 08:53:47;;;;;;;15.98;4.18;;;16.20;99.90;;;;;;4954280;28;20063;-73
2023/10/04 08:56:52;;;;;;;12.63;3.88;;;16.30;99.90;;;;;;4936765;29;20082;-75
2023/10/04 08:59:38;;;;;;;19.88;4.60;;;16.40;99.90;;;;;;4936981;29;20065;-74
2023/10/04 09:02:25;;;;;;;15.75;4.07;;;16.50;99.90;;;;;;4937081;29;20134;-81
2023/10/04 09:05:15;;;;;;;15.23;4.75;;;16.70;99.90;;;;;;4955405;28;20145;-72
2023/10/04 09:08:04;;;;;;;14.18;3.78;;;16.80;99.90;;;;;;4937057;29;20047;-79
2023/10/04 09:10:55;;;;;;;15.43;4.53;;;16.80;99.90;;;;;;4953668;29;20065;-83
2023/10/04 09:13:47;;;;;;;18.30;4.47;;;16.90;99.90;;;;;;4952729;28;20551;-76
2023/10/04 09:16:34;;;;;;;18.25;4.00;;;17.10;99.90;;;;;;4936408;29;20138;-73
2023/10/04 09:19:21;;;;;;;13.32;4.20;;;17.20;99.90;;;;;;4939651;29;20055;-79
2023/10/04 09:22:09;;;;;;;18.88;5.13;;;17.30;99.90;;;;;;4936472;29;20564;-78
2023/10/04 09:24:56;;;;;;;12.57;4.00;;;17.40;99.90;;;;;;4936500;29;20059;-82
2023/10/04 09:27:55;;;;;;;13.63;3.30;;;17.40;99.90;;;;;;4936280;29;20133;-73
2023/10/04 09:30:41;;;;;;;11.52;4.03;;;17.40;99.90;;;;;;4935106;29;20062;-79
2023/10/04 09:33:34;;;;;;;9.75;3.15;;;17.30;99.90;;;;;;4935050;29;20109;-75
2023/10/04 09:36:33;;;;;;;13.05;3.92;;;17.40;99.90;;;;;;4936630;29;20081;-73
2023/10/04 09:39:27;;;;;;;13.55;4.85;;;17.60;99.90;;;;;;4954274;28;20043;-76
2023/10/04 09:42:14;;;;;;;11.77;3.63;;;17.60;99.90;;;;;;4936638;29;20137;-77
2023/10/04 09:45:09;;;;;;;12.45;4.05;;;17.50;99.90;;;;;;4936472;29;20089;-73
2023/10/04 09:47:55;;;;;;;;;;;17.40;99.90;;;;;;4923671;29;20058;-76
2023/10/04 09:50:42;;;;;;;13.38;3.88;;;17.10;99.90;;;;;;4935902;29;19922;-73
2023/10/04 09:53:31;;;;;;;15.07;4.18;;;17.10;99.90;;;;;;4935304;29;20138;-77
2023/10/04 09:56:19;;;;;;;13.68;4.32;;;17.20;99.90;;;;;;4935113;29;20054;-73
2023/10/04 09:59:07;;;;;;;15.07;4.03;;;17.30;99.90;;;;;;4922375;29;20114;-74
2023/10/04 10:01:56;;;;;;;12.23;4.25;;;17.40;99.90;;;;;;4921736;29;20050;-75
2023/10/04 10:04:43;;;;;;;17.75;4.88;;;17.60;99.90;;;;;;4936534;29;20055;-79
2023/10/04 10:07:33;;;;;;;17.02;3.65;;;17.70;99.90;;;;;;4936369;29;20070;-82
2023/10/04 10:10:23;;;;;;;16.08;4.32;;;17.70;99.90;;;;;;4936062;29;20059;-78
2023/10/04 10:13:10;;;;;;;13.25;5.00;;;17.80;99.90;;;;;;4935709;29;20058;-76
2023/10/04 10:15:56;;;;;;;18.85;5.03;;;18.00;99.90;;;;;;4935664;29;20097;-72
2023/10/04 10:18:43;;;;;;;16.65;5.20;;;17.80;99.90;;;;;;4935852;29;20051;-72
2023/10/04 10:22:18;;;;;;;17.02;4.32;;;17.90;99.90;;;;;;4935221;29;20059;-74
2023/10/04 10:25:14;;;;;;;13.63;4.65;;;17.90;99.90;;;;;;4925243;29;20496;-77
2023/10/04 10:28:10;;;;;;;16.83;5.63;;;17.80;99.90;;;;;;4939912;29;20047;-71
2023/10/04 10:30:59;;;;;;;;;;;17.70;99.90;;;;;;4940265;29;20062;-72
2023/10/04 10:33:47;;;;;;;20.88;5.32;;;17.60;99.90;;;;;;4956153;28;19930;-71
2023/10/04 10:36:35;;;;;;;15.95;4.80;;;17.60;99.90;;;;;;4957120;28;20495;-78
2023/10/04 10:39:24;;;;;;;15.93;5.10;;;17.40;99.90;;;;;;4956900;28;20484;-86
2023/10/04 10:42:11;;;;;;;20.48;4.47;;;17.30;99.90;;;;;;4939188;29;20169;-80
2023/10/04 10:45:34;;;;;;;15.43;3.97;;;17.10;99.90;;;;;;4939727;29;20066;-80
2023/10/04 10:48:33;;;;;;;17.73;4.95;;;17.00;99.90;;;;;;4939580;29;20070;-78
2023/10/04 10:51:51;;;;;;;16.70;5.32;;;17.00;99.90;;;;;;4939212;29;20055;-81
2023/10/04 10:54:38;;;;;;;17.85;4.40;;;16.90;99.90;;;;;;4915665;29;20138;-78
2023/10/04 10:57:29;;;;;;;12.32;3.78;;;16.90;99.90;;;;;;4939231;29;20055;-82
2023/10/04 11:03:11;;;;;;;15.10;4.03;;;16.90;99.90;;;;;;4956550;28;20077;-81
2023/10/04 11:05:57;;;;;;;17.02;4.75;;;16.90;99.90;;;;;;4939302;29;20051;-72
2023/10/04 11:08:44;;;;;;;16.55;4.18;;;16.90;99.90;;;;;;4924776;29;20061;-71
2023/10/04 11:11:30;;;;;;;9.50;3.47;;;16.90;99.90;;;;;;4938965;29;20093;-77
2023/10/04 11:14:19;;;;;;;16.65;4.80;;;17.00;99.90;;;;;;4938237;29;20043;-74
2023/10/04 11:17:05;;;;;;;19.42;4.25;;;17.00;99.90;;;;;;4938923;29;20094;-79
2023/10/04 11:19:53;;;;;;;14.85;4.22;;;17.00;99.90;;;;;;4953845;29;20051;-75
2023/10/04 11:22:41;;;;;;;13.20;3.72;;;17.00;99.90;;;;;;4938422;29;20055;-74
2023/10/04 11:25:27;;;;;;;16.85;3.85;;;17.10;99.90;;;;;;4938599;29;20062;-77
2023/10/04 11:28:13;;;;;;;12.52;3.85;;;17.10;99.90;;;;;;4938951;29;20062;-73
2023/10/04 11:30:59;;;;;;;10.50;3.28;;;17.20;99.90;;;;;;4938674;29;20059;-79
2023/10/04 11:33:55;;;;;;;11.88;3.63;;;17.20;99.90;;;;;;4924879;29;20054;-80
2023/10/04 11:36:41;;;;;;;14.02;4.13;;;17.10;99.90;;;;;;4937312;29;20047;-73
2023/10/04 11:39:34;;;;;;;15.52;5.22;;;17.10;99.90;;;;;;4954152;29;20050;-84
2023/10/04 11:42:23;;;;;;;11.80;3.67;;;17.20;99.90;;;;;;4938079;29;20047;-91
2023/10/04 11:45:26;;;;;;;13.15;3.60;;;17.20;99.90;;;;;;4925179;29;20074;-83
2023/10/04 11:48:12;;;;;;;13.27;3.35;;;17.20;99.90;;;;;;4937104;29;20051;-83
2023/10/04 11:50:58;;;;;;;16.00;3.30;;;17.20;99.90;;;;;;4938771;29;20055;-76
2023/10/04 11:53:45;;;;;;;13.18;3.42;;;17.30;99.90;;;;;;4956871;28;20063;-83
2023/10/04 11:56:41;;;;;;;9.75;3.00;;;17.30;99.90;;;;;;4938984;29;20098;-78
2023/10/04 11:59:31;;;;;;;13.00;3.75;;;17.50;99.90;;;;;;4938193;29;20090;-79
2023/10/04 12:02:17;;;;;;;11.60;3.78;;;17.50;99.90;;;;;;4937053;29;20105;-75
2023/10/04 12:05:03;;;;;;;19.92;3.75;;;17.60;99.90;;;;;;4923612;29;20055;-83
2023/10/04 12:07:49;;;;;;;10.23;3.08;;;17.60;99.90;;;;;;4937872;29;20420;-86
2023/10/04 12:10:36;;;;;;;12.95;3.10;;;17.70;99.90;;;;;;4923728;29;20580;-71
2023/10/04 12:13:25;;;;;;;12.85;3.35;;;17.90;99.90;;;;;;4937533;29;20043;-77
2023/10/04 12:16:13;;;;;;;10.85;3.08;;;18.00;99.90;;;;;;4937873;29;20051;-76
2023/10/04 12:19:01;;;;;;;9.07;2.78;;;18.10;99.90;;;;;;4938171;29;20149;-79
2023/10/04 12:21:47;;;;;;;8.07;2.63;;;18.20;99.90;;;;;;4927365;28;20538;-77
2023/10/04 12:24:33;;;;;;;12.85;2.65;;;18.20;99.90;;;;;;4940311;28;20109;-77
2023/10/04 12:27:21;;;;;;;15.02;3.08;;;18.10;99.90;;;;;;4938127;28;20114;-73
2023/10/04 12:30:08;;;;;;;10.95;2.33;;;18.10;99.90;;;;;;4924870;29;20140;-86
2023/10/04 12:32:54;;;;;;;11.15;3.05;;;17.90;99.90;;;;;;4937903;28;20062;-74
2023/10/04 12:35:42;;;;;;;12.00;2.85;;;17.90;99.90;;;;;;4938145;28;20055;-84
2023/10/04 12:38:29;;;;;;;9.93;3.63;;;18.00;99.90;;;;;;4937562;28;20047;-81
2023/10/04 12:41:15;;;;;;;13.55;3.10;;;18.10;99.90;;;;;;4937408;29;20055;-83
2023/10/04 12:44:02;;;;;;;14.00;2.88;;;18.00;99.90;;;;;;4937923;28;20158;-76
2023/10/04 12:46:48;;;;;;;14.95;2.72;;;18.00;99.90;;;;;;4955140;28;20059;-76
2023/10/04 12:49:34;;;;;;;11.10;2.28;;;18.00;99.90;;;;;;4937071;28;20109;-77
2023/10/04 12:52:24;;;;;;;8.15;2.38;;;17.90;99.90;;;;;;4953320;29;20395;-78
2023/10/04 12:55:11;;;;;;;8.70;2.85;;;17.80;99.90;;;;;;4937044;28;20503;-76
2023/10/04 12:57:57;;;;;;;11.13;2.53;;;17.80;99.90;;;;;;4936957;29;20418;-84
2023/10/04 13:00:43;;;;;;;14.00;2.70;;;17.90;99.90;;;;;;4940080;29;20224;-82
2023/10/04 13:03:31;;;;;;;8.68;2.85;;;17.70;99.90;;;;;;4937689;28;20134;-81
2023/10/04 13:06:17;;;;;;;10.65;2.22;;;17.60;99.90;;;;;;4955003;28;20055;-78
2023/10/04 13:09:04;;;;;;;9.23;2.42;;;17.70;99.90;;;;;;4954074;28;20059;-79
2023/10/04 13:11:52;;;;;;;10.52;2.47;;;17.60;99.90;;;;;;4954485;28;20415;-78
2023/10/04 13:14:38;;;;;;;13.98;3.58;;;17.60;99.90;;;;;;4924790;28;20062;-86
2023/10/04 13:17:25;;;;;;;9.75;2.15;;;17.70;99.90;;;;;;4954580;28;20094;-84
2023/10/04 13:20:17;;;;;;;15.45;2.75;;;17.90;99.90;;;;;;4954006;28;20055;-79
2023/10/04 13:23:05;;;;;;;11.15;2.78;;;18.00;99.90;;;;;;4936811;28;20142;-78
2023/10/04 13:25:51;;;;;;;11.20;2.75;;;18.00;99.90;;;;;;4935866;29;20047;-77
2023/10/04 13:28:38;;;;;;;10.18;2.15;;;17.70;99.90;;;;;;4935055;29;20098;-79
2023/10/04 13:31:24;;;;;;;10.45;2.15;;;17.60;99.90;;;;;;4935149;28;20060;-84
2023/10/04 13:34:10;;;;;;;9.32;2.10;;;17.30;99.90;;;;;;4951461;28;20152;-85
2023/10/04 13:36:56;;;;;;;14.85;3.20;;;17.10;99.90;;;;;;4933812;29;20051;-78
2023/10/04 13:39:42;;;;;;;12.27;2.55;;;17.00;99.90;;;;;;4934021;29;20051;-81
2023/10/04 13:42:28;;;;;;;16.58;3.15;;;17.00;99.90;;;;;;4934168;29;20050;-79
2023/10/04 13:45:16;;;;;;;12.15;2.22;;;17.50;99.90;;;;;;4932023;29;20055;-86
2023/10/04 13:48:11;;;;;;;8.40;2.75;;;17.80;99.90;;;;;;4951796;28;20051;-78
2023/10/04 13:50:59;;;;;;;;;;;17.80;99.90;;;;;;4930367;29;20055;-77
2023/10/04 13:53:45;;;;;;;14.10;2.83;;;17.60;99.90;;;;;;4934050;29;21323;-84
2023/10/04 13:56:31;;;;;;;12.57;3.15;;;17.60;99.90;;;;;;4932376;29;20055;-81
2023/10/04 13:59:17;;;;;;;12.95;2.65;;;17.50;99.90;;;;;;4949954;28;20058;-84
2023/10/04 14:02:05;;;;;;;15.63;2.55;;;17.30;99.90;;;;;;4942229;28;20056;-74
2023/10/04 14:04:52;;;;;;;8.93;2.25;;;17.20;99.90;;;;;;4933526;29;20531;-77
2023/10/04 14:07:39;;;;;;;11.00;2.17;;;17.20;99.90;;;;;;4931481;29;20197;-80
2023/10/04 14:10:25;;;;;;;11.10;2.42;;;17.20;99.90;;;;;;4934947;28;20066;-77
2023/10/04 14:13:12;;;;;;;12.20;2.88;;;17.20;99.90;;;;;;4936257;29;20535;-79
2023/10/04 14:15:58;;;;;;;8.85;2.00;;;17.20;99.90;;;;;;4934421;28;20429;-82
2023/10/04 14:18:44;;;;;;;9.75;1.80;;;17.20;99.90;;;;;;4935001;28;20812;-86
2023/10/04 14:21:30;;;;;;;11.38;2.42;;;17.20;99.90;;;;;;4935011;28;20483;-72
2023/10/04 14:24:17;;;;;;;12.02;2.45;;;17.10;99.90;;;;;;4934638;29;20051;-75
2023/10/04 14:27:03;;;;;;;8.63;2.15;;;17.10;99.90;;;;;;4934550;28;20405;-79
2023/10/04 14:29:49;;;;;;;8.32;1.88;;;17.10;99.90;;;;;;4933178;29;20063;-79